Arches Natl Park, Utah
Current Conditions -  °F | °C
As of 10:53 PM on Wednesday 26 Nov 2014 (Local Time) from KCNY Reporting Station
Clear Clear  
Wind Chill: 30°   Ceiling: Unl
Heat Index: 30°   Visibility: 10mi
Dew Point: 14°   Wind: 3mph
Humidity: 51%   Direction: 270°W
Pressure: 30.42"   Gusts: NA
Location:  38.7°N, 109.75°W
Report Text: KCNY 270553Z AUTO 27003KT 10SM CLR M01/M10 A3042 RMK AO2 SLP312 T10111100 10089 21011 51010
Loading
Personal Weather Stations






























Interactive Weather Map New forecast layout! Learn more

10-Day Weather Forecast

Advertisements
Track Severe Weather on mobile